Ardmore, Tennessee
Current Conditions -  °F | °C
As of 8:15 AM on Saturday 25 Oct 2014 (Local Time) from KFYM Reporting Station
Clear Clear  
Wind Chill: 38°   Ceiling: Unl
Heat Index: 48°   Visibility: 10mi
Dew Point: 46°   Wind: 47mph
Humidity: 93%   Direction: 110°ESE
Pressure: 30.11"   Gusts: 344mph
Location:  34.99°N, 86.85°W
Report Text: KFYM 251315Z AUTO 11041G299KT 10SM CLR 09/08 A3011 RMK
Loading
Personal Weather Stations






























Interactive Weather Map
Tropical Storm Tracking
New forecast layout! Learn more

10-Day Weather Forecast

Advertisements
Track Severe Weather on mobile